createdAt,value
2022-10-17T00:00:24.786Z,84.19
2022-10-17T00:02:58.634Z,84.18
2022-10-17T00:05:27.492Z,84.39
2022-10-17T00:07:57.167Z,84.22
2022-10-17T00:10:25.997Z,83.81
2022-10-17T00:12:55.699Z,83.91
2022-10-17T00:15:26.632Z,84.73
2022-10-17T00:17:56.297Z,84.27
2022-10-17T00:20:26.915Z,84.74
2022-10-17T00:22:57.559Z,84.85
2022-10-17T00:25:32.131Z,84.27
2022-10-17T00:28:08.971Z,84.25
2022-10-17T00:30:39.073Z,84.39
2022-10-17T00:33:10.668Z,84.39
2022-10-17T00:35:44.032Z,84.63
2022-10-17T00:38:25.110Z,84.63
2022-10-17T00:41:00.934Z,84.52
2022-10-17T00:44:06.790Z,84.69
2022-10-17T00:46:40.782Z,84.88
2022-10-17T00:49:13.071Z,84.58
2022-10-17T00:51:46.681Z,84.38
2022-10-17T00:54:19.566Z,84.23
2022-10-17T01:02:33.590Z,84.08
2022-10-17T01:05:10.079Z,84.52
2022-10-17T01:07:46.516Z,84.68
2022-10-17T01:16:33.561Z,83.98
2022-10-17T01:19:41.250Z,84.42
2022-10-17T01:22:20.970Z,84.08
2022-10-17T01:25:02.390Z,83.81
2022-10-17T01:28:23.242Z,84.37
2022-10-17T01:31:14.140Z,83.91
2022-10-17T01:34:05.010Z,83.84
2022-10-17T01:36:42.392Z,83.76
2022-10-17T01:39:22.148Z,83.84
2022-10-17T01:42:06.786Z,83.75
2022-10-17T01:44:43.910Z,83.78
2022-10-17T01:47:20.553Z,84.32
2022-10-17T01:49:55.132Z,84.25
2022-10-17T01:52:29.590Z,84.37
2022-10-17T01:55:05.942Z,83.87
2022-10-17T01:57:54.369Z,83.65
2022-10-17T02:00:38.165Z,84.05
2022-10-17T02:03:19.349Z,84.36
2022-10-17T02:08:47.587Z,84.10
2022-10-17T02:11:23.734Z,84.24
2022-10-17T02:14:18.358Z,84.42
2022-10-17T02:17:01.082Z,84.37
2022-10-17T02:20:22.630Z,85.02
2022-10-17T02:23:00.332Z,85.13
2022-10-17T02:26:05.619Z,84.88
2022-10-17T02:28:51.724Z,85.25
2022-10-17T02:31:28.416Z,84.84
2022-10-17T02:34:03.832Z,85.25
2022-10-17T02:36:52.940Z,85.27
2022-10-17T02:39:40.485Z,85.08
2022-10-17T02:42:14.566Z,86.19
2022-10-17T02:44:48.231Z,85.74
2022-10-17T02:48:01.686Z,85.48
2022-10-17T02:50:43.089Z,86.00
2022-10-17T02:53:42.341Z,85.50
2022-10-17T02:56:19.634Z,85.65
2022-10-17T02:59:00.981Z,85.65
2022-10-17T03:01:33.843Z,85.94
2022-10-17T03:07:07.543Z,86.37
2022-10-17T03:09:37.611Z,86.62
2022-10-17T03:12:06.887Z,86.44
2022-10-17T03:14:49.242Z,86.44
2022-10-17T03:17:21.924Z,87.10
2022-10-17T03:19:50.136Z,86.74
2022-10-17T03:22:21.622Z,87.21
2022-10-17T03:24:58.748Z,87.32
2022-10-17T03:27:35.440Z,87.36
2022-10-17T03:30:11.069Z,87.45
2022-10-17T03:32:44.002Z,87.66
2022-10-17T03:35:19.553Z,88.19
2022-10-17T03:37:52.693Z,87.84
2022-10-17T03:40:46.374Z,88.02
2022-10-17T03:46:02.587Z,88.45
2022-10-17T03:48:34.121Z,87.66
2022-10-17T03:51:09.532Z,88.61
2022-10-17T03:53:52.048Z,88.93
2022-10-17T03:56:26.017Z,88.92
2022-10-17T03:58:56.405Z,88.92
2022-10-17T04:01:31.129Z,88.62
2022-10-17T04:04:02.365Z,89.21
2022-10-17T04:06:44.322Z,89.20
2022-10-17T04:09:15.428Z,89.27
2022-10-17T04:11:45.162Z,89.89
2022-10-17T04:14:22.043Z,88.79
2022-10-17T04:16:58.375Z,89.93
2022-10-17T04:19:29.258Z,89.76
2022-10-17T04:21:58.185Z,89.77
2022-10-17T04:29:59.195Z,89.91
2022-10-17T04:32:33.903Z,90.50
2022-10-17T04:35:03.666Z,90.06
2022-10-17T04:37:34.234Z,90.71
2022-10-17T04:40:03.910Z,90.89
2022-10-17T04:42:50.728Z,90.15
2022-10-17T04:45:21.920Z,90.33
2022-10-17T04:47:54.212Z,90.66
2022-10-17T04:50:22.905Z,91.04
2022-10-17T04:55:52.569Z,90.63
2022-10-17T04:58:30.978Z,90.74
2022-10-17T05:01:01.123Z,91.30
2022-10-17T05:03:31.895Z,90.67
2022-10-17T05:06:00.101Z,91.35
2022-10-17T05:08:37.142Z,90.82
2022-10-17T05:11:09.660Z,90.75
2022-10-17T05:13:58.336Z,90.70
2022-10-17T05:16:29.935Z,91.00
2022-10-17T05:19:01.916Z,90.85
2022-10-17T05:24:09.096Z,91.21
2022-10-17T05:26:41.283Z,91.31
2022-10-17T05:29:14.112Z,91.50
2022-10-17T05:31:49.058Z,91.16
2022-10-17T05:34:18.477Z,91.13
2022-10-17T05:36:48.130Z,91.15
2022-10-17T05:39:20.676Z,91.39
2022-10-17T05:41:55.264Z,91.56
2022-10-17T05:47:34.837Z,91.55
2022-10-17T05:50:03.373Z,91.63
2022-10-17T05:52:47.161Z,91.94
2022-10-17T05:55:16.449Z,92.02
2022-10-17T05:58:00.800Z,91.97
2022-10-17T06:00:32.086Z,92.03
2022-10-17T06:03:02.938Z,91.73
2022-10-17T06:05:32.678Z,92.37
2022-10-17T06:08:08.374Z,92.56
2022-10-17T06:10:40.304Z,92.71
2022-10-17T06:13:10.047Z,92.30
2022-10-17T06:16:07.072Z,92.30
2022-10-17T06:21:28.772Z,92.78
2022-10-17T06:23:59.809Z,92.42
2022-10-17T06:26:34.672Z,92.81
2022-10-17T06:29:04.215Z,92.59
2022-10-17T06:31:38.290Z,92.26
2022-10-17T06:34:15.163Z,92.52
2022-10-17T06:36:51.556Z,92.65
2022-10-17T06:39:36.642Z,92.18
2022-10-17T06:42:07.174Z,92.50
2022-10-17T06:44:37.321Z,92.75
2022-10-17T06:47:08.331Z,92.73
2022-10-17T06:49:51.719Z,92.54
2022-10-17T06:52:35.155Z,92.87
2022-10-17T06:55:10.722Z,92.92
2022-10-17T06:57:40.640Z,92.62
2022-10-17T07:00:12.428Z,93.00
2022-10-17T07:02:49.444Z,93.05
2022-10-17T07:08:08.073Z,92.85
2022-10-17T07:10:38.972Z,92.55
2022-10-17T07:13:13.365Z,92.62
2022-10-17T07:15:42.578Z,92.76
2022-10-17T07:18:33.848Z,92.76
2022-10-17T07:21:11.916Z,92.71
2022-10-17T07:23:48.764Z,92.62
2022-10-17T07:26:19.558Z,92.56
2022-10-17T07:28:54.408Z,92.42
2022-10-17T07:31:26.307Z,92.29
2022-10-17T07:34:01.754Z,92.40
2022-10-17T07:36:36.463Z,92.18
2022-10-17T07:39:23.702Z,92.15
2022-10-17T07:42:00.840Z,92.20
2022-10-17T07:44:31.668Z,92.24
2022-10-17T07:47:02.033Z,91.94
2022-10-17T07:49:33.991Z,92.08
2022-10-17T07:52:17.168Z,91.67
2022-10-17T07:54:54.570Z,91.58
2022-10-17T07:57:23.692Z,91.59
2022-10-17T08:00:02.177Z,91.08
2022-10-17T08:02:33.490Z,91.36
2022-10-17T08:05:10.960Z,90.90
2022-10-17T08:07:42.656Z,90.91
2022-10-17T08:10:14.526Z,91.08
2022-10-17T08:12:44.594Z,90.93
2022-10-17T08:15:34.685Z,90.71
2022-10-17T08:18:06.491Z,90.62
2022-10-17T08:20:56.773Z,90.46
2022-10-17T08:26:20.265Z,89.53
2022-10-17T08:28:49.497Z,89.39
2022-10-17T08:31:35.497Z,89.00
2022-10-17T08:34:12.694Z,88.86
2022-10-17T08:36:56.904Z,88.76
2022-10-17T08:39:25.342Z,88.40
2022-10-17T08:42:08.026Z,87.93
2022-10-17T08:44:58.938Z,87.76
2022-10-17T08:53:26.746Z,87.20
2022-10-17T08:55:59.686Z,87.07
2022-10-17T08:58:39.333Z,86.78
2022-10-17T09:01:27.308Z,86.34
2022-10-17T09:04:50.100Z,86.29
2022-10-17T09:07:31.321Z,86.22
2022-10-17T09:10:11.909Z,86.03
2022-10-17T09:13:07.598Z,85.80
2022-10-17T09:15:52.629Z,85.53
2022-10-17T09:18:31.514Z,85.50
2022-10-17T09:21:21.773Z,85.03
2022-10-17T09:24:15.875Z,84.82
2022-10-17T09:26:47.585Z,85.00
2022-10-17T09:29:44.057Z,85.07
2022-10-17T09:32:42.975Z,85.10
2022-10-17T09:35:18.079Z,84.52
2022-10-17T09:37:52.276Z,85.14
2022-10-17T09:43:28.446Z,85.04
2022-10-17T09:46:26.861Z,84.70
2022-10-17T09:49:03.429Z,84.55
2022-10-17T09:51:34.717Z,85.14
2022-10-17T09:54:13.525Z,85.11
2022-10-17T09:57:07.174Z,85.54
2022-10-17T10:05:34.935Z,85.93
2022-10-17T10:08:07.226Z,85.75
2022-10-17T10:10:38.900Z,85.81
2022-10-17T10:13:21.818Z,86.26
2022-10-17T10:15:54.391Z,86.57
2022-10-17T10:18:56.861Z,87.49
2022-10-17T10:21:31.429Z,87.98
2022-10-17T10:24:25.882Z,88.66
2022-10-17T10:27:09.436Z,89.16
2022-10-17T10:29:44.890Z,89.41
2022-10-17T10:32:24.551Z,90.17
2022-10-17T10:35:08.528Z,90.22
2022-10-17T10:37:43.819Z,90.73
2022-10-17T10:40:19.680Z,91.05
2022-10-17T10:46:00.426Z,91.36
2022-10-17T10:48:36.952Z,91.70
2022-10-17T10:51:15.550Z,92.06
2022-10-17T10:54:01.456Z,92.13
2022-10-17T10:56:40.592Z,92.45
2022-10-17T10:59:19.442Z,92.67
2022-10-17T11:01:58.442Z,92.92
2022-10-17T11:04:47.439Z,93.10
2022-10-17T11:07:22.762Z,93.00
2022-10-17T11:10:18.865Z,93.33
2022-10-17T11:12:56.320Z,93.50
2022-10-17T11:15:35.533Z,93.56
2022-10-17T11:21:22.044Z,93.60
2022-10-17T11:24:11.407Z,93.32
2022-10-17T11:27:07.382Z,93.88
2022-10-17T11:29:49.908Z,93.74
2022-10-17T11:32:27.998Z,93.93
2022-10-17T11:35:09.300Z,94.12
2022-10-17T11:37:48.366Z,94.39
2022-10-17T11:40:37.921Z,94.68
2022-10-17T11:46:14.589Z,94.99
2022-10-17T11:49:19.792Z,95.06
2022-10-17T11:52:00.937Z,95.21
2022-10-17T11:54:54.155Z,95.24
2022-10-17T11:57:51.975Z,95.30
2022-10-17T12:00:32.668Z,95.64
2022-10-17T12:03:57.741Z,95.75
2022-10-17T12:07:07.609Z,95.87
2022-10-17T12:09:54.792Z,95.88
2022-10-17T12:12:34.559Z,95.93
2022-10-17T12:15:34.601Z,95.85
2022-10-17T12:18:06.404Z,95.97
2022-10-17T12:20:37.658Z,96.16
2022-10-17T12:23:28.110Z,95.63
2022-10-17T12:26:30.375Z,95.68
2022-10-17T12:29:00.180Z,95.98
2022-10-17T12:31:34.103Z,95.94
2022-10-17T12:34:20.728Z,96.04
2022-10-17T12:36:58.037Z,96.00
2022-10-17T12:39:54.519Z,96.08
2022-10-17T12:43:25.489Z,96.13
2022-10-17T12:46:12.439Z,95.86
2022-10-17T12:49:19.475Z,95.92
2022-10-17T12:55:17.255Z,96.21
2022-10-17T12:58:27.575Z,96.18
2022-10-17T13:04:04.681Z,96.50
2022-10-17T13:06:38.480Z,96.71
2022-10-17T13:09:30.647Z,96.54
2022-10-17T13:12:02.989Z,96.72
2022-10-17T13:14:41.890Z,96.52
2022-10-17T13:17:30.808Z,96.63
2022-10-17T13:20:00.961Z,96.69
2022-10-17T13:22:41.555Z,96.29
2022-10-17T13:25:19.011Z,96.53
2022-10-17T13:27:53.768Z,96.33
2022-10-17T13:30:49.793Z,96.37
2022-10-17T13:34:00.203Z,96.32
2022-10-17T13:36:31.096Z,96.57
2022-10-17T13:39:17.231Z,96.95
2022-10-17T13:41:54.484Z,96.50
2022-10-17T13:44:27.908Z,96.62
2022-10-17T13:46:58.693Z,96.56
2022-10-17T13:49:41.753Z,96.35
2022-10-17T13:52:29.766Z,96.64
2022-10-17T13:55:27.347Z,96.52
2022-10-17T13:58:02.990Z,96.79
2022-10-17T14:00:35.157Z,96.53
2022-10-17T14:03:11.007Z,96.50
2022-10-17T14:06:21.652Z,96.65
2022-10-17T14:08:59.888Z,96.59
2022-10-17T14:11:41.236Z,96.53
2022-10-17T14:14:20.549Z,96.64
2022-10-17T14:16:49.575Z,96.50
2022-10-17T14:19:28.121Z,96.47
2022-10-17T14:22:19.284Z,96.45
2022-10-17T14:24:52.142Z,96.93
2022-10-17T14:28:03.087Z,96.49
2022-10-17T14:30:56.437Z,96.50
2022-10-17T14:33:34.560Z,96.36
2022-10-17T14:36:07.300Z,96.66
2022-10-17T14:38:40.593Z,96.52
2022-10-17T14:44:22.265Z,96.54
2022-10-17T14:46:58.059Z,96.73
2022-10-17T14:50:01.073Z,96.80
2022-10-17T14:52:52.179Z,96.59
2022-10-17T14:55:40.355Z,96.45
2022-10-17T14:58:31.413Z,96.56
2022-10-17T15:01:20.105Z,96.69
2022-10-17T15:03:50.257Z,96.50
2022-10-17T15:06:50.310Z,96.60
2022-10-17T15:09:20.035Z,96.40
2022-10-17T15:11:53.212Z,96.51
2022-10-17T15:14:22.946Z,96.65
2022-10-17T15:16:51.244Z,96.20
2022-10-17T15:19:22.502Z,96.68
2022-10-17T15:21:52.309Z,96.65
2022-10-17T15:24:22.052Z,96.76
2022-10-17T15:27:00.387Z,96.66
2022-10-17T15:29:34.951Z,96.50
2022-10-17T15:32:04.343Z,96.38
2022-10-17T15:34:38.800Z,96.34
2022-10-17T15:37:21.358Z,96.22
2022-10-17T15:39:59.269Z,96.45
2022-10-17T15:42:32.507Z,96.25
2022-10-17T15:45:16.786Z,96.30
2022-10-17T15:47:53.100Z,96.41
2022-10-17T15:50:30.354Z,96.42
2022-10-17T15:53:02.892Z,96.49
2022-10-17T15:55:34.258Z,96.38
2022-10-17T16:01:20.497Z,96.20
2022-10-17T16:04:05.770Z,96.05
2022-10-17T16:06:39.794Z,96.08
2022-10-17T16:09:08.042Z,96.42
2022-10-17T16:11:40.777Z,96.59
2022-10-17T16:17:12.537Z,96.39
2022-10-17T16:19:48.476Z,96.51
2022-10-17T16:22:44.108Z,96.35
2022-10-17T16:25:36.989Z,96.22
2022-10-17T16:28:06.281Z,96.40
2022-10-17T16:30:52.039Z,96.52
2022-10-17T16:33:21.633Z,96.46
2022-10-17T16:35:56.062Z,96.47
2022-10-17T16:38:25.813Z,96.27
2022-10-17T16:40:54.641Z,96.63
2022-10-17T16:43:24.612Z,96.78
2022-10-17T16:46:09.460Z,96.66
2022-10-17T16:48:46.908Z,97.15
2022-10-17T16:51:20.495Z,96.91
2022-10-17T16:53:53.271Z,96.85
2022-10-17T16:56:33.507Z,96.97
2022-10-17T16:59:04.193Z,96.60
2022-10-17T17:01:40.741Z,97.38
2022-10-17T17:04:15.353Z,97.19
2022-10-17T17:06:50.114Z,96.81
2022-10-17T17:09:19.572Z,96.83
2022-10-17T17:11:48.418Z,97.04
2022-10-17T17:14:35.383Z,97.23
2022-10-17T17:17:24.398Z,96.78
2022-10-17T17:20:21.018Z,97.14
2022-10-17T17:22:53.561Z,96.93
2022-10-17T17:25:24.773Z,97.43
2022-10-17T17:28:00.416Z,97.45
2022-10-17T17:30:30.758Z,96.97
2022-10-17T17:33:03.079Z,97.23
2022-10-17T17:35:54.583Z,97.33
2022-10-17T17:38:22.940Z,97.46
2022-10-17T17:40:54.379Z,98.00
2022-10-17T17:43:38.417Z,97.01
2022-10-17T17:46:09.544Z,97.49
2022-10-17T17:48:56.292Z,97.19
2022-10-17T17:51:29.643Z,97.08
2022-10-17T17:53:59.036Z,97.79
2022-10-17T17:56:35.737Z,97.80
2022-10-17T17:59:04.176Z,97.55
2022-10-17T18:01:39.106Z,97.82
2022-10-17T18:04:11.010Z,97.82
2022-10-17T18:06:43.754Z,97.67
2022-10-17T18:09:17.948Z,98.08
2022-10-17T18:11:48.704Z,98.07
2022-10-17T18:14:19.961Z,98.22
2022-10-17T18:16:48.432Z,98.32
2022-10-17T18:24:57.493Z,98.49
2022-10-17T18:27:39.164Z,98.58
2022-10-17T18:30:11.873Z,98.43
2022-10-17T18:32:40.681Z,98.68
2022-10-17T18:35:45.229Z,98.68
2022-10-17T18:38:19.916Z,98.40
2022-10-17T18:40:51.693Z,98.45
2022-10-17T18:43:21.410Z,98.27
2022-10-17T18:46:04.692Z,98.31
2022-10-17T18:48:36.015Z,98.64
2022-10-17T18:51:07.179Z,98.48
2022-10-17T18:53:40.727Z,98.46
2022-10-17T18:56:24.408Z,98.76
2022-10-17T18:58:59.755Z,98.41
2022-10-17T19:01:32.343Z,98.75
2022-10-17T19:04:02.671Z,98.79
2022-10-17T19:06:40.831Z,98.80
2022-10-17T19:09:27.414Z,98.45
2022-10-17T19:11:56.565Z,98.33
2022-10-17T19:14:32.481Z,98.57
2022-10-17T19:17:04.119Z,98.72
2022-10-17T19:19:34.612Z,98.75
2022-10-17T19:22:05.916Z,98.96
2022-10-17T19:24:55.361Z,98.56
2022-10-17T19:27:23.698Z,99.05
2022-10-17T19:30:11.092Z,98.56
2022-10-17T19:32:42.084Z,98.80
2022-10-17T19:35:13.401Z,98.62
2022-10-17T19:38:06.461Z,99.03
2022-10-17T19:40:57.153Z,98.64
2022-10-17T19:43:31.823Z,98.86
2022-10-17T19:46:05.002Z,98.40
2022-10-17T19:48:39.488Z,98.83
2022-10-17T19:51:10.514Z,98.48
2022-10-17T19:53:47.888Z,98.53
2022-10-17T19:56:18.740Z,98.64
2022-10-17T19:58:49.342Z,98.65
2022-10-17T20:01:23.553Z,98.65
2022-10-17T20:03:53.148Z,98.62
2022-10-17T20:06:28.569Z,98.78
2022-10-17T20:09:02.003Z,98.47
2022-10-17T20:11:33.252Z,98.46
2022-10-17T20:14:02.906Z,98.39
2022-10-17T20:16:43.129Z,98.85
2022-10-17T20:19:15.007Z,99.04
2022-10-17T20:21:45.054Z,99.19
2022-10-17T20:27:00.488Z,99.39
2022-10-17T20:29:30.859Z,99.34
2022-10-17T20:32:16.862Z,99.00
2022-10-17T20:34:47.063Z,99.10
2022-10-17T20:37:19.481Z,99.56
2022-10-17T20:39:59.925Z,99.51
2022-10-17T20:42:39.101Z,99.58
2022-10-17T20:45:37.588Z,99.95
2022-10-17T20:48:30.927Z,99.65
2022-10-17T20:51:00.400Z,99.12
2022-10-17T20:53:38.557Z,99.38
2022-10-17T20:56:20.142Z,99.66
2022-10-17T20:59:09.112Z,99.39
2022-10-17T21:01:38.984Z,99.63
2022-10-17T21:04:40.361Z,99.43
2022-10-17T21:06:57.881Z,99.44
2022-10-17T21:09:32.635Z,99.28
2022-10-17T21:12:05.646Z,99.48
2022-10-17T21:14:36.404Z,99.55
2022-10-17T21:17:05.624Z,99.64
2022-10-17T21:19:40.869Z,99.62
2022-10-17T21:22:29.580Z,100.00
2022-10-17T21:25:00.862Z,99.85
2022-10-17T21:27:36.470Z,99.80
2022-10-17T21:30:05.367Z,99.91
2022-10-17T21:32:51.115Z,99.86
2022-10-17T21:35:21.405Z,100.00
2022-10-17T21:40:34.446Z,100.00
2022-10-17T21:43:05.156Z,99.60
2022-10-17T21:45:37.928Z,99.91
2022-10-17T21:48:13.986Z,99.70
2022-10-17T21:50:48.510Z,99.88
2022-10-17T21:53:20.243Z,99.59
2022-10-17T21:55:48.591Z,99.56
2022-10-17T21:58:47.964Z,99.13
2022-10-17T22:01:21.521Z,99.01
2022-10-17T22:03:54.457Z,99.38
2022-10-17T22:06:40.149Z,99.53
2022-10-17T22:09:13.915Z,99.73
2022-10-17T22:11:57.333Z,99.87
2022-10-17T22:14:28.519Z,100.00
2022-10-17T22:16:57.118Z,100.00
2022-10-17T22:19:28.962Z,100.00
2022-10-17T22:22:07.626Z,100.00
2022-10-17T22:24:39.049Z,100.00
2022-10-17T22:27:13.591Z,100.00
2022-10-17T22:29:59.982Z,100.00
2022-10-17T22:32:29.505Z,100.00
2022-10-17T22:35:03.493Z,100.00
2022-10-17T22:37:40.560Z,100.00
2022-10-17T22:40:09.710Z,100.00
2022-10-17T22:42:40.685Z,100.00
2022-10-17T22:45:11.771Z,100.00
2022-10-17T22:47:45.903Z,100.00
2022-10-17T22:50:19.916Z,100.00
2022-10-17T22:52:54.051Z,100.00
2022-10-17T22:55:28.109Z,99.88
2022-10-17T22:58:02.700Z,100.00
2022-10-17T23:00:46.279Z,99.95
2022-10-17T23:03:22.462Z,100.00
2022-10-17T23:05:51.970Z,100.00
2022-10-17T23:08:36.597Z,100.00
2022-10-17T23:11:07.989Z,99.94
2022-10-17T23:13:37.278Z,99.76
2022-10-17T23:16:12.762Z,100.00
2022-10-17T23:18:41.382Z,99.76
2022-10-17T23:21:14.881Z,99.90
2022-10-17T23:23:43.964Z,99.94
2022-10-17T23:26:16.606Z,99.60
2022-10-17T23:28:57.439Z,99.66
2022-10-17T23:31:34.271Z,99.88
2022-10-17T23:34:05.297Z,99.59
2022-10-17T23:36:35.529Z,99.56
2022-10-17T23:39:07.389Z,99.63
2022-10-17T23:41:35.705Z,99.90
2022-10-17T23:44:04.612Z,99.84
2022-10-17T23:46:37.321Z,99.73
2022-10-17T23:49:12.174Z,99.85
2022-10-17T23:51:41.541Z,100.00
2022-10-17T23:54:11.059Z,100.00
2022-10-17T23:56:39.869Z,100.00
2022-10-17T23:59:11.434Z,100.00
